sensor_id;sensor_type;location;lat;lon;timestamp;temperature;humidity
54264;DHT22;40178;53.042;6.406;2024-02-04T00:00:28;6.60;99.90
54264;DHT22;40178;53.042;6.406;2024-02-04T00:02:53;6.60;99.90
54264;DHT22;40178;53.042;6.406;2024-02-04T00:05:19;6.60;99.90
54264;DHT22;40178;53.042;6.406;2024-02-04T00:07:45;6.60;99.90
54264;DHT22;40178;53.042;6.406;2024-02-04T00:10:11;6.50;99.90
54264;DHT22;40178;53.042;6.406;2024-02-04T00:12:37;6.60;99.90
54264;DHT22;40178;53.042;6.406;2024-02-04T00:15:03;6.60;99.90
54264;DHT22;40178;53.042;6.406;2024-02-04T00:17:32;6.60;99.90
54264;DHT22;40178;53.042;6.406;2024-02-04T00:20:03;6.60;99.90
54264;DHT22;40178;53.042;6.406;2024-02-04T00:22:31;6.50;99.90
54264;DHT22;40178;53.042;6.406;2024-02-04T00:24:57;6.50;99.90
54264;DHT22;40178;53.042;6.406;2024-02-04T00:27:27;6.50;99.90
54264;DHT22;40178;53.042;6.406;2024-02-04T00:29:53;6.50;99.90
54264;DHT22;40178;53.042;6.406;2024-02-04T00:32:18;6.60;99.90
54264;DHT22;40178;53.042;6.406;2024-02-04T00:34:44;6.50;99.90
54264;DHT22;40178;53.042;6.406;2024-02-04T00:37:09;6.50;99.90
54264;DHT22;40178;53.042;6.406;2024-02-04T00:39:35;6.50;99.90
54264;DHT22;40178;53.042;6.406;2024-02-04T00:42:01;6.50;99.90
54264;DHT22;40178;53.042;6.406;2024-02-04T00:44:26;6.40;99.90
54264;DHT22;40178;53.042;6.406;2024-02-04T00:46:52;6.40;99.90
54264;DHT22;40178;53.042;6.406;2024-02-04T00:49:17;6.40;99.90
54264;DHT22;40178;53.042;6.406;2024-02-04T00:51:43;6.30;99.90
54264;DHT22;40178;53.042;6.406;2024-02-04T00:54:09;6.30;99.90
54264;DHT22;40178;53.042;6.406;2024-02-04T00:56:35;6.30;99.90
54264;DHT22;40178;53.042;6.406;2024-02-04T00:59:00;6.20;99.90
54264;DHT22;40178;53.042;6.406;2024-02-04T01:01:26;6.10;99.90
54264;DHT22;40178;53.042;6.406;2024-02-04T01:03:51;6.10;99.90
54264;DHT22;40178;53.042;6.406;2024-02-04T01:06:17;6.10;99.90
54264;DHT22;40178;53.042;6.406;2024-02-04T01:08:43;6.00;99.90
54264;DHT22;40178;53.042;6.406;2024-02-04T01:11:08;5.60;99.90
54264;DHT22;40178;53.042;6.406;2024-02-04T01:13:34;6.00;99.90
54264;DHT22;40178;53.042;6.406;2024-02-04T01:15:59;6.00;99.90
54264;DHT22;40178;53.042;6.406;2024-02-04T01:18:25;6.00;99.90
54264;DHT22;40178;53.042;6.406;2024-02-04T01:20:51;6.00;99.90
54264;DHT22;40178;53.042;6.406;2024-02-04T01:23:16;6.00;99.90
54264;DHT22;40178;53.042;6.406;2024-02-04T01:25:45;5.90;99.90
54264;DHT22;40178;53.042;6.406;2024-02-04T01:28:11;5.90;99.90
54264;DHT22;40178;53.042;6.406;2024-02-04T01:30:36;5.90;99.90
54264;DHT22;40178;53.042;6.406;2024-02-04T01:33:03;5.90;99.90
54264;DHT22;40178;53.042;6.406;2024-02-04T01:35:29;5.90;99.90
54264;DHT22;40178;53.042;6.406;2024-02-04T01:37:54;5.90;99.90
54264;DHT22;40178;53.042;6.406;2024-02-04T01:40:20;5.80;99.90
54264;DHT22;40178;53.042;6.406;2024-02-04T01:42:46;5.90;99.90
54264;DHT22;40178;53.042;6.406;2024-02-04T01:45:11;5.90;99.90
54264;DHT22;40178;53.042;6.406;2024-02-04T01:47:37;5.80;99.90
54264;DHT22;40178;53.042;6.406;2024-02-04T01:50:03;5.70;99.90
54264;DHT22;40178;53.042;6.406;2024-02-04T01:52:31;5.70;99.90
54264;DHT22;40178;53.042;6.406;2024-02-04T01:54:59;5.70;99.90
54264;DHT22;40178;53.042;6.406;2024-02-04T01:57:26;5.70;99.90
54264;DHT22;40178;53.042;6.406;2024-02-04T01:59:52;5.70;99.90
54264;DHT22;40178;53.042;6.406;2024-02-04T02:02:20;5.70;99.90
54264;DHT22;40178;53.042;6.406;2024-02-04T02:04:46;5.70;99.90
54264;DHT22;40178;53.042;6.406;2024-02-04T02:07:13;5.70;99.90
54264;DHT22;40178;53.042;6.406;2024-02-04T02:09:40;5.70;99.90
54264;DHT22;40178;53.042;6.406;2024-02-04T02:12:16;5.70;99.90
54264;DHT22;40178;53.042;6.406;2024-02-04T02:14:48;5.70;99.90
54264;DHT22;40178;53.042;6.406;2024-02-04T02:17:18;5.70;99.90
54264;DHT22;40178;53.042;6.406;2024-02-04T02:20:01;5.70;99.90
54264;DHT22;40178;53.042;6.406;2024-02-04T02:22:38;5.60;99.90
54264;DHT22;40178;53.042;6.406;2024-02-04T02:25:05;5.60;99.90
54264;DHT22;40178;53.042;6.406;2024-02-04T02:27:31;5.60;99.90
54264;DHT22;40178;53.042;6.406;2024-02-04T02:29:57;5.70;99.90
54264;DHT22;40178;53.042;6.406;2024-02-04T02:32:23;5.60;99.90
54264;DHT22;40178;53.042;6.406;2024-02-04T02:34:49;5.60;99.90
54264;DHT22;40178;53.042;6.406;2024-02-04T02:37:29;5.60;99.90
54264;DHT22;40178;53.042;6.406;2024-02-04T02:40:23;5.60;99.90
54264;DHT22;40178;53.042;6.406;2024-02-04T02:42:52;5.60;99.90
54264;DHT22;40178;53.042;6.406;2024-02-04T02:45:20;5.60;99.90
54264;DHT22;40178;53.042;6.406;2024-02-04T02:47:48;5.60;99.90
54264;DHT22;40178;53.042;6.406;2024-02-04T02:50:14;5.70;99.90
54264;DHT22;40178;53.042;6.406;2024-02-04T02:52:40;5.70;99.90
54264;DHT22;40178;53.042;6.406;2024-02-04T02:55:06;5.60;99.90
54264;DHT22;40178;53.042;6.406;2024-02-04T02:57:31;5.60;99.90
54264;DHT22;40178;53.042;6.406;2024-02-04T02:59:57;5.60;99.90
54264;DHT22;40178;53.042;6.406;2024-02-04T03:02:22;5.60;99.90
54264;DHT22;40178;53.042;6.406;2024-02-04T03:04:48;5.60;99.90
54264;DHT22;40178;53.042;6.406;2024-02-04T03:07:14;5.60;99.90
54264;DHT22;40178;53.042;6.406;2024-02-04T03:09:39;5.60;99.90
54264;DHT22;40178;53.042;6.406;2024-02-04T03:12:05;5.60;99.90
54264;DHT22;40178;53.042;6.406;2024-02-04T03:14:31;5.60;99.90
54264;DHT22;40178;53.042;6.406;2024-02-04T03:16:57;5.60;99.90
54264;DHT22;40178;53.042;6.406;2024-02-04T03:19:22;5.60;99.90
54264;DHT22;40178;53.042;6.406;2024-02-04T03:21:48;5.60;99.90
54264;DHT22;40178;53.042;6.406;2024-02-04T03:24:13;5.60;99.90
54264;DHT22;40178;53.042;6.406;2024-02-04T03:26:39;5.60;99.90
54264;DHT22;40178;53.042;6.406;2024-02-04T03:29:05;5.60;99.90
54264;DHT22;40178;53.042;6.406;2024-02-04T03:31:31;5.60;99.90
54264;DHT22;40178;53.042;6.406;2024-02-04T03:33:56;5.70;99.90
54264;DHT22;40178;53.042;6.406;2024-02-04T03:36:24;5.70;99.90
54264;DHT22;40178;53.042;6.406;2024-02-04T03:38:52;5.70;99.90
54264;DHT22;40178;53.042;6.406;2024-02-04T03:41:18;5.70;99.90
54264;DHT22;40178;53.042;6.406;2024-02-04T03:43:44;5.70;99.90
54264;DHT22;40178;53.042;6.406;2024-02-04T03:46:16;5.70;99.90
54264;DHT22;40178;53.042;6.406;2024-02-04T03:48:42;5.80;99.90
54264;DHT22;40178;53.042;6.406;2024-02-04T03:51:08;5.80;99.90
54264;DHT22;40178;53.042;6.406;2024-02-04T03:53:33;5.80;99.90
54264;DHT22;40178;53.042;6.406;2024-02-04T03:55:59;5.80;99.90
54264;DHT22;40178;53.042;6.406;2024-02-04T03:58:25;5.80;99.90
54264;DHT22;40178;53.042;6.406;2024-02-04T04:00:55;5.80;99.90
54264;DHT22;40178;53.042;6.406;2024-02-04T04:03:22;5.90;99.90
54264;DHT22;40178;53.042;6.406;2024-02-04T04:05:48;5.90;99.90
54264;DHT22;40178;53.042;6.406;2024-02-04T04:08:13;5.90;99.90
54264;DHT22;40178;53.042;6.406;2024-02-04T04:10:39;5.90;99.90
54264;DHT22;40178;53.042;6.406;2024-02-04T04:13:04;5.90;99.90
54264;DHT22;40178;53.042;6.406;2024-02-04T04:15:30;5.90;99.90
54264;DHT22;40178;53.042;6.406;2024-02-04T04:17:56;6.00;99.90
54264;DHT22;40178;53.042;6.406;2024-02-04T04:20:21;5.90;99.90
54264;DHT22;40178;53.042;6.406;2024-02-04T04:22:47;6.00;99.90
54264;DHT22;40178;53.042;6.406;2024-02-04T04:25:13;5.90;99.90
54264;DHT22;40178;53.042;6.406;2024-02-04T04:27:39;5.90;99.90
54264;DHT22;40178;53.042;6.406;2024-02-04T04:30:05;6.00;99.90
54264;DHT22;40178;53.042;6.406;2024-02-04T04:32:31;6.00;99.90
54264;DHT22;40178;53.042;6.406;2024-02-04T04:34:57;6.00;99.90
54264;DHT22;40178;53.042;6.406;2024-02-04T04:37:23;6.00;99.90
54264;DHT22;40178;53.042;6.406;2024-02-04T04:39:48;6.00;99.90
54264;DHT22;40178;53.042;6.406;2024-02-04T04:42:14;6.00;99.90
54264;DHT22;40178;53.042;6.406;2024-02-04T04:44:39;6.00;99.90
54264;DHT22;40178;53.042;6.406;2024-02-04T04:47:06;6.00;99.90
54264;DHT22;40178;53.042;6.406;2024-02-04T04:49:31;6.00;99.90
54264;DHT22;40178;53.042;6.406;2024-02-04T04:51:57;6.00;99.90
54264;DHT22;40178;53.042;6.406;2024-02-04T04:54:23;6.00;99.90
54264;DHT22;40178;53.042;6.406;2024-02-04T04:56:48;6.00;99.90
54264;DHT22;40178;53.042;6.406;2024-02-04T04:59:15;6.00;99.90
54264;DHT22;40178;53.042;6.406;2024-02-04T05:01:47;6.10;99.90
54264;DHT22;40178;53.042;6.406;2024-02-04T05:04:13;6.10;99.90
54264;DHT22;40178;53.042;6.406;2024-02-04T05:06:40;6.10;99.90
54264;DHT22;40178;53.042;6.406;2024-02-04T05:09:05;6.10;99.90
54264;DHT22;40178;53.042;6.406;2024-02-04T05:11:31;6.10;99.90
54264;DHT22;40178;53.042;6.406;2024-02-04T05:13:56;6.10;99.90
54264;DHT22;40178;53.042;6.406;2024-02-04T05:16:22;6.10;99.90
54264;DHT22;40178;53.042;6.406;2024-02-04T05:18:48;6.20;99.90
54264;DHT22;40178;53.042;6.406;2024-02-04T05:21:13;6.20;99.90
54264;DHT22;40178;53.042;6.406;2024-02-04T05:23:39;6.20;99.90
54264;DHT22;40178;53.042;6.406;2024-02-04T05:26:05;6.20;99.90
54264;DHT22;40178;53.042;6.406;2024-02-04T05:28:31;6.20;99.90
54264;DHT22;40178;53.042;6.406;2024-02-04T05:30:57;6.20;99.90
54264;DHT22;40178;53.042;6.406;2024-02-04T05:33:22;6.20;99.90
54264;DHT22;40178;53.042;6.406;2024-02-04T05:35:48;6.30;99.90
54264;DHT22;40178;53.042;6.406;2024-02-04T05:38:13;6.20;99.90
54264;DHT22;40178;53.042;6.406;2024-02-04T05:40:39;6.30;99.90
54264;DHT22;40178;53.042;6.406;2024-02-04T05:43:05;6.20;99.90
54264;DHT22;40178;53.042;6.406;2024-02-04T05:45:33;6.30;99.90
54264;DHT22;40178;53.042;6.406;2024-02-04T05:47:59;6.30;99.90
54264;DHT22;40178;53.042;6.406;2024-02-04T05:50:24;6.30;99.90
54264;DHT22;40178;53.042;6.406;2024-02-04T05:52:50;6.30;99.90
54264;DHT22;40178;53.042;6.406;2024-02-04T05:55:15;6.30;99.90
54264;DHT22;40178;53.042;6.406;2024-02-04T05:57:41;6.30;99.90
54264;DHT22;40178;53.042;6.406;2024-02-04T06:00:07;6.30;99.90
54264;DHT22;40178;53.042;6.406;2024-02-04T06:02:35;6.30;99.90
54264;DHT22;40178;53.042;6.406;2024-02-04T06:05:02;6.30;99.90
54264;DHT22;40178;53.042;6.406;2024-02-04T06:07:27;6.30;99.90
54264;DHT22;40178;53.042;6.406;2024-02-04T06:09:54;6.30;99.90
54264;DHT22;40178;53.042;6.406;2024-02-04T06:12:21;6.30;99.90
54264;DHT22;40178;53.042;6.406;2024-02-04T06:14:47;6.30;99.90
54264;DHT22;40178;53.042;6.406;2024-02-04T06:17:13;6.30;99.90
54264;DHT22;40178;53.042;6.406;2024-02-04T06:19:38;6.40;99.90
54264;DHT22;40178;53.042;6.406;2024-02-04T06:22:04;6.40;99.90
54264;DHT22;40178;53.042;6.406;2024-02-04T06:24:30;6.50;99.90
54264;DHT22;40178;53.042;6.406;2024-02-04T06:26:56;6.50;99.90
54264;DHT22;40178;53.042;6.406;2024-02-04T06:29:21;6.50;99.90
54264;DHT22;40178;53.042;6.406;2024-02-04T06:31:47;6.50;99.90
54264;DHT22;40178;53.042;6.406;2024-02-04T06:34:13;6.50;99.90
54264;DHT22;40178;53.042;6.406;2024-02-04T06:36:41;6.50;99.90
54264;DHT22;40178;53.042;6.406;2024-02-04T06:39:07;6.50;99.90
54264;DHT22;40178;53.042;6.406;2024-02-04T06:41:34;6.60;99.90
54264;DHT22;40178;53.042;6.406;2024-02-04T06:44:00;6.60;99.90
54264;DHT22;40178;53.042;6.406;2024-02-04T06:46:26;6.60;99.90
54264;DHT22;40178;53.042;6.406;2024-02-04T06:48:53;6.60;99.90
54264;DHT22;40178;53.042;6.406;2024-02-04T06:51:19;6.60;99.90
54264;DHT22;40178;53.042;6.406;2024-02-04T06:53:44;6.70;99.90
54264;DHT22;40178;53.042;6.406;2024-02-04T06:56:10;6.70;99.90
54264;DHT22;40178;53.042;6.406;2024-02-04T06:58:39;6.70;99.90
54264;DHT22;40178;53.042;6.406;2024-02-04T07:01:05;6.70;99.90
54264;DHT22;40178;53.042;6.406;2024-02-04T07:03:31;6.70;99.90
54264;DHT22;40178;53.042;6.406;2024-02-04T07:05:58;6.80;99.90
54264;DHT22;40178;53.042;6.406;2024-02-04T07:08:24;6.80;99.90
54264;DHT22;40178;53.042;6.406;2024-02-04T07:10:50;6.80;99.90
54264;DHT22;40178;53.042;6.406;2024-02-04T07:13:17;6.80;99.90
54264;DHT22;40178;53.042;6.406;2024-02-04T07:15:42;6.80;99.90
54264;DHT22;40178;53.042;6.406;2024-02-04T07:18:08;6.80;99.90
54264;DHT22;40178;53.042;6.406;2024-02-04T07:20:33;6.90;99.90
54264;DHT22;40178;53.042;6.406;2024-02-04T07:22:59;6.90;99.90
54264;DHT22;40178;53.042;6.406;2024-02-04T07:25:25;6.90;99.90
54264;DHT22;40178;53.042;6.406;2024-02-04T07:27:51;6.90;99.90
54264;DHT22;40178;53.042;6.406;2024-02-04T07:30:16;6.90;99.90
54264;DHT22;40178;53.042;6.406;2024-02-04T07:32:42;6.90;99.90
54264;DHT22;40178;53.042;6.406;2024-02-04T07:35:08;6.90;99.90
54264;DHT22;40178;53.042;6.406;2024-02-04T07:37:35;6.90;99.90
54264;DHT22;40178;53.042;6.406;2024-02-04T07:40:01;6.90;99.90
54264;DHT22;40178;53.042;6.406;2024-02-04T07:42:27;6.90;99.90
54264;DHT22;40178;53.042;6.406;2024-02-04T07:44:53;6.90;99.90
54264;DHT22;40178;53.042;6.406;2024-02-04T07:47:18;6.90;99.90
54264;DHT22;40178;53.042;6.406;2024-02-04T07:49:47;7.00;99.90
54264;DHT22;40178;53.042;6.406;2024-02-04T07:52:13;7.00;99.90
54264;DHT22;40178;53.042;6.406;2024-02-04T07:54:39;7.00;99.90
54264;DHT22;40178;53.042;6.406;2024-02-04T07:57:04;7.00;99.90
54264;DHT22;40178;53.042;6.406;2024-02-04T07:59:30;7.00;99.90
54264;DHT22;40178;53.042;6.406;2024-02-04T08:01:56;7.10;99.90
54264;DHT22;40178;53.042;6.406;2024-02-04T08:04:21;7.00;99.90
54264;DHT22;40178;53.042;6.406;2024-02-04T08:06:47;7.10;99.90
54264;DHT22;40178;53.042;6.406;2024-02-04T08:09:13;7.10;99.90
54264;DHT22;40178;53.042;6.406;2024-02-04T08:11:39;7.10;99.90
54264;DHT22;40178;53.042;6.406;2024-02-04T08:14:05;7.10;99.90
54264;DHT22;40178;53.042;6.406;2024-02-04T08:16:30;7.10;99.90
54264;DHT22;40178;53.042;6.406;2024-02-04T08:18:56;7.10;99.90
54264;DHT22;40178;53.042;6.406;2024-02-04T08:21:21;7.20;99.90
54264;DHT22;40178;53.042;6.406;2024-02-04T08:23:47;7.20;99.90
54264;DHT22;40178;53.042;6.406;2024-02-04T08:26:13;7.20;99.90
54264;DHT22;40178;53.042;6.406;2024-02-04T08:28:39;7.20;99.90
54264;DHT22;40178;53.042;6.406;2024-02-04T08:31:04;7.20;99.90
54264;DHT22;40178;53.042;6.406;2024-02-04T08:33:30;7.20;99.90
54264;DHT22;40178;53.042;6.406;2024-02-04T08:35:56;7.20;99.90
54264;DHT22;40178;53.042;6.406;2024-02-04T08:38:22;7.30;99.90
54264;DHT22;40178;53.042;6.406;2024-02-04T08:40:47;7.30;99.90
54264;DHT22;40178;53.042;6.406;2024-02-04T08:43:13;7.40;99.90
54264;DHT22;40178;53.042;6.406;2024-02-04T08:45:38;7.40;99.90
54264;DHT22;40178;53.042;6.406;2024-02-04T08:48:04;7.40;99.90
54264;DHT22;40178;53.042;6.406;2024-02-04T08:50:30;7.50;99.90
54264;DHT22;40178;53.042;6.406;2024-02-04T08:52:56;7.50;99.90
54264;DHT22;40178;53.042;6.406;2024-02-04T08:55:21;7.50;99.90
54264;DHT22;40178;53.042;6.406;2024-02-04T08:57:47;7.60;99.90
54264;DHT22;40178;53.042;6.406;2024-02-04T09:00:14;7.60;99.90
54264;DHT22;40178;53.042;6.406;2024-02-04T09:02:41;7.60;99.90
54264;DHT22;40178;53.042;6.406;2024-02-04T09:05:07;7.60;99.90
54264;DHT22;40178;53.042;6.406;2024-02-04T09:07:33;7.60;99.90
54264;DHT22;40178;53.042;6.406;2024-02-04T09:09:58;7.60;99.90
54264;DHT22;40178;53.042;6.406;2024-02-04T09:12:24;7.70;99.90
54264;DHT22;40178;53.042;6.406;2024-02-04T09:14:49;7.70;99.90
54264;DHT22;40178;53.042;6.406;2024-02-04T09:17:15;7.70;99.90
54264;DHT22;40178;53.042;6.406;2024-02-04T09:19:41;7.70;99.90
54264;DHT22;40178;53.042;6.406;2024-02-04T09:22:06;7.80;99.90
54264;DHT22;40178;53.042;6.406;2024-02-04T09:24:32;7.80;99.90
54264;DHT22;40178;53.042;6.406;2024-02-04T09:26:58;7.80;99.90
54264;DHT22;40178;53.042;6.406;2024-02-04T09:29:23;7.90;99.90
54264;DHT22;40178;53.042;6.406;2024-02-04T09:31:49;7.90;99.90
54264;DHT22;40178;53.042;6.406;2024-02-04T09:34:17;7.90;99.90
54264;DHT22;40178;53.042;6.406;2024-02-04T09:36:43;8.00;99.90
54264;DHT22;40178;53.042;6.406;2024-02-04T09:39:09;8.00;99.90
54264;DHT22;40178;53.042;6.406;2024-02-04T09:41:35;8.00;99.90
54264;DHT22;40178;53.042;6.406;2024-02-04T09:44:02;8.10;99.90
54264;DHT22;40178;53.042;6.406;2024-02-04T09:46:29;8.10;99.90
54264;DHT22;40178;53.042;6.406;2024-02-04T09:48:55;8.10;99.90
54264;DHT22;40178;53.042;6.406;2024-02-04T09:51:21;8.10;99.90
54264;DHT22;40178;53.042;6.406;2024-02-04T09:53:52;8.20;99.90
54264;DHT22;40178;53.042;6.406;2024-02-04T09:56:18;8.20;99.90
54264;DHT22;40178;53.042;6.406;2024-02-04T09:58:45;8.20;99.90
54264;DHT22;40178;53.042;6.406;2024-02-04T10:01:11;8.30;99.90
54264;DHT22;40178;53.042;6.406;2024-02-04T10:03:38;8.40;99.90
54264;DHT22;40178;53.042;6.406;2024-02-04T10:06:04;8.50;99.90
54264;DHT22;40178;53.042;6.406;2024-02-04T10:08:30;8.50;99.90
54264;DHT22;40178;53.042;6.406;2024-02-04T10:10:55;8.60;99.90
54264;DHT22;40178;53.042;6.406;2024-02-04T10:13:21;8.60;99.90
54264;DHT22;40178;53.042;6.406;2024-02-04T10:15:48;8.60;99.90
54264;DHT22;40178;53.042;6.406;2024-02-04T10:18:14;8.60;99.90
54264;DHT22;40178;53.042;6.406;2024-02-04T10:20:39;8.60;99.90
54264;DHT22;40178;53.042;6.406;2024-02-04T10:23:05;8.60;99.90
54264;DHT22;40178;53.042;6.406;2024-02-04T10:25:31;8.60;99.90
54264;DHT22;40178;53.042;6.406;2024-02-04T10:27:57;8.60;99.90
54264;DHT22;40178;53.042;6.406;2024-02-04T10:30:26;8.60;99.90
54264;DHT22;40178;53.042;6.406;2024-02-04T10:32:52;8.70;99.90
54264;DHT22;40178;53.042;6.406;2024-02-04T10:35:20;8.60;99.90
54264;DHT22;40178;53.042;6.406;2024-02-04T10:37:49;8.70;99.90
54264;DHT22;40178;53.042;6.406;2024-02-04T10:40:15;8.80;99.90
54264;DHT22;40178;53.042;6.406;2024-02-04T10:42:42;8.80;99.90
54264;DHT22;40178;53.042;6.406;2024-02-04T10:45:08;8.80;99.90
54264;DHT22;40178;53.042;6.406;2024-02-04T10:47:38;8.80;99.90
54264;DHT22;40178;53.042;6.406;2024-02-04T10:50:05;8.80;99.90
54264;DHT22;40178;53.042;6.406;2024-02-04T10:52:38;8.90;99.90
54264;DHT22;40178;53.042;6.406;2024-02-04T10:55:09;9.00;99.90
54264;DHT22;40178;53.042;6.406;2024-02-04T10:57:38;9.00;99.90
54264;DHT22;40178;53.042;6.406;2024-02-04T11:00:04;9.00;99.90
54264;DHT22;40178;53.042;6.406;2024-02-04T11:02:38;9.00;99.90
54264;DHT22;40178;53.042;6.406;2024-02-04T11:05:04;9.00;99.90
54264;DHT22;40178;53.042;6.406;2024-02-04T11:07:32;9.00;99.90
54264;DHT22;40178;53.042;6.406;2024-02-04T11:10:01;9.00;99.90
54264;DHT22;40178;53.042;6.406;2024-02-04T11:12:29;8.90;99.90
54264;DHT22;40178;53.042;6.406;2024-02-04T11:14:58;8.90;99.90
54264;DHT22;40178;53.042;6.406;2024-02-04T11:20:41;8.90;99.90
54264;DHT22;40178;53.042;6.406;2024-02-04T11:26:11;8.90;99.90
54264;DHT22;40178;53.042;6.406;2024-02-04T11:28:30;9.00;99.90
54264;DHT22;40178;53.042;6.406;2024-02-04T11:30:56;9.00;99.90
54264;DHT22;40178;53.042;6.406;2024-02-04T11:33:23;9.00;99.90
54264;DHT22;40178;53.042;6.406;2024-02-04T11:36:04;9.10;99.90
54264;DHT22;40178;53.042;6.406;2024-02-04T11:38:36;9.10;99.90
54264;DHT22;40178;53.042;6.406;2024-02-04T11:41:05;9.10;99.90
54264;DHT22;40178;53.042;6.406;2024-02-04T11:43:36;9.20;99.90
54264;DHT22;40178;53.042;6.406;2024-02-04T11:46:04;9.10;99.90
54264;DHT22;40178;53.042;6.406;2024-02-04T11:48:32;9.20;99.90
54264;DHT22;40178;53.042;6.406;2024-02-04T11:50:59;9.20;99.90
54264;DHT22;40178;53.042;6.406;2024-02-04T11:53:27;9.20;99.90
54264;DHT22;40178;53.042;6.406;2024-02-04T11:55:58;9.20;99.90
54264;DHT22;40178;53.042;6.406;2024-02-04T11:58:24;9.30;99.90
54264;DHT22;40178;53.042;6.406;2024-02-04T12:00:51;9.30;99.90
54264;DHT22;40178;53.042;6.406;2024-02-04T12:03:28;9.30;99.90
54264;DHT22;40178;53.042;6.406;2024-02-04T12:05:54;9.30;99.90
54264;DHT22;40178;53.042;6.406;2024-02-04T12:08:20;9.40;99.90
54264;DHT22;40178;53.042;6.406;2024-02-04T12:10:47;9.40;99.90
54264;DHT22;40178;53.042;6.406;2024-02-04T12:13:13;9.40;99.90
54264;DHT22;40178;53.042;6.406;2024-02-04T12:15:40;9.40;99.90
54264;DHT22;40178;53.042;6.406;2024-02-04T12:18:09;9.40;99.90
54264;DHT22;40178;53.042;6.406;2024-02-04T12:20:36;9.30;99.90
54264;DHT22;40178;53.042;6.406;2024-02-04T12:23:06;9.30;99.90
54264;DHT22;40178;53.042;6.406;2024-02-04T12:25:33;9.30;99.90
54264;DHT22;40178;53.042;6.406;2024-02-04T12:27:59;9.30;99.90
54264;DHT22;40178;53.042;6.406;2024-02-04T12:30:26;9.30;99.90
54264;DHT22;40178;53.042;6.406;2024-02-04T12:33:02;9.30;99.90
54264;DHT22;40178;53.042;6.406;2024-02-04T12:35:30;9.30;99.90
54264;DHT22;40178;53.042;6.406;2024-02-04T12:37:57;9.20;99.90
54264;DHT22;40178;53.042;6.406;2024-02-04T12:40:27;9.20;99.90
54264;DHT22;40178;53.042;6.406;2024-02-04T12:42:57;9.20;99.90
54264;DHT22;40178;53.042;6.406;2024-02-04T12:45:24;9.20;99.90
54264;DHT22;40178;53.042;6.406;2024-02-04T12:47:53;9.20;99.90
54264;DHT22;40178;53.042;6.406;2024-02-04T12:50:20;9.20;99.90
54264;DHT22;40178;53.042;6.406;2024-02-04T12:52:47;9.20;99.90
54264;DHT22;40178;53.042;6.406;2024-02-04T12:55:39;9.30;99.90
54264;DHT22;40178;53.042;6.406;2024-02-04T12:58:12;9.20;99.90
54264;DHT22;40178;53.042;6.406;2024-02-04T13:00:40;9.30;99.90
54264;DHT22;40178;53.042;6.406;2024-02-04T13:03:07;9.30;99.90
54264;DHT22;40178;53.042;6.406;2024-02-04T13:05:34;9.30;99.90
54264;DHT22;40178;53.042;6.406;2024-02-04T13:08:01;9.30;99.90
54264;DHT22;40178;53.042;6.406;2024-02-04T13:10:29;9.20;99.90
54264;DHT22;40178;53.042;6.406;2024-02-04T13:13:09;9.20;99.90
54264;DHT22;40178;53.042;6.406;2024-02-04T13:15:44;9.20;99.90
54264;DHT22;40178;53.042;6.406;2024-02-04T13:18:10;9.20;99.90
54264;DHT22;40178;53.042;6.406;2024-02-04T13:20:37;9.20;99.90
54264;DHT22;40178;53.042;6.406;2024-02-04T13:23:03;9.10;99.90
54264;DHT22;40178;53.042;6.406;2024-02-04T13:25:32;9.00;99.90
54264;DHT22;40178;53.042;6.406;2024-02-04T13:27:58;9.00;99.90
54264;DHT22;40178;53.042;6.406;2024-02-04T13:30:24;9.00;99.90
54264;DHT22;40178;53.042;6.406;2024-02-04T13:32:50;9.00;99.90
54264;DHT22;40178;53.042;6.406;2024-02-04T13:35:16;9.00;99.90
54264;DHT22;40178;53.042;6.406;2024-02-04T13:37:44;8.90;99.90
54264;DHT22;40178;53.042;6.406;2024-02-04T13:40:17;8.90;99.90
54264;DHT22;40178;53.042;6.406;2024-02-04T13:42:43;8.90;99.90
54264;DHT22;40178;53.042;6.406;2024-02-04T13:45:09;8.90;99.90
54264;DHT22;40178;53.042;6.406;2024-02-04T13:47:35;8.90;99.90
54264;DHT22;40178;53.042;6.406;2024-02-04T13:50:01;8.90;99.90
54264;DHT22;40178;53.042;6.406;2024-02-04T13:52:28;8.90;99.90
54264;DHT22;40178;53.042;6.406;2024-02-04T13:54:53;8.80;99.90
54264;DHT22;40178;53.042;6.406;2024-02-04T13:57:19;8.80;99.90
54264;DHT22;40178;53.042;6.406;2024-02-04T13:59:45;8.70;99.90
54264;DHT22;40178;53.042;6.406;2024-02-04T14:02:10;8.70;99.90
54264;DHT22;40178;53.042;6.406;2024-02-04T14:04:36;8.70;99.90
54264;DHT22;40178;53.042;6.406;2024-02-04T14:07:02;8.60;99.90
54264;DHT22;40178;53.042;6.406;2024-02-04T14:09:28;8.60;99.90
54264;DHT22;40178;53.042;6.406;2024-02-04T14:11:54;8.60;99.90
54264;DHT22;40178;53.042;6.406;2024-02-04T14:14:23;8.60;99.90
54264;DHT22;40178;53.042;6.406;2024-02-04T14:16:49;8.80;99.90
54264;DHT22;40178;53.042;6.406;2024-02-04T14:19:16;8.60;99.90
54264;DHT22;40178;53.042;6.406;2024-02-04T14:21:41;8.60;99.90
54264;DHT22;40178;53.042;6.406;2024-02-04T14:24:07;8.60;99.90
54264;DHT22;40178;53.042;6.406;2024-02-04T14:26:33;8.60;99.90
54264;DHT22;40178;53.042;6.406;2024-02-04T14:28:58;8.60;99.90
54264;DHT22;40178;53.042;6.406;2024-02-04T14:31:24;8.60;99.90
54264;DHT22;40178;53.042;6.406;2024-02-04T14:33:50;8.60;99.90
54264;DHT22;40178;53.042;6.406;2024-02-04T14:36:16;8.60;99.90
54264;DHT22;40178;53.042;6.406;2024-02-04T14:38:42;8.60;99.90
54264;DHT22;40178;53.042;6.406;2024-02-04T14:41:08;8.60;99.90
54264;DHT22;40178;53.042;6.406;2024-02-04T14:43:35;8.60;99.90
54264;DHT22;40178;53.042;6.406;2024-02-04T14:46:01;8.60;99.90
54264;DHT22;40178;53.042;6.406;2024-02-04T14:48:26;8.60;99.90
54264;DHT22;40178;53.042;6.406;2024-02-04T14:50:52;8.60;99.90
54264;DHT22;40178;53.042;6.406;2024-02-04T14:53:18;8.60;99.90
54264;DHT22;40178;53.042;6.406;2024-02-04T14:55:44;8.70;99.90
54264;DHT22;40178;53.042;6.406;2024-02-04T14:58:09;8.70;99.90
54264;DHT22;40178;53.042;6.406;2024-02-04T15:00:35;8.70;99.90
54264;DHT22;40178;53.042;6.406;2024-02-04T15:03:01;8.70;99.90
54264;DHT22;40178;53.042;6.406;2024-02-04T15:05:27;8.70;99.90
54264;DHT22;40178;53.042;6.406;2024-02-04T15:07:52;8.60;99.90
54264;DHT22;40178;53.042;6.406;2024-02-04T15:10:19;8.70;99.90
54264;DHT22;40178;53.042;6.406;2024-02-04T15:12:45;8.70;99.90
54264;DHT22;40178;53.042;6.406;2024-02-04T15:15:11;8.60;99.90
54264;DHT22;40178;53.042;6.406;2024-02-04T15:17:38;8.60;99.90
54264;DHT22;40178;53.042;6.406;2024-02-04T15:20:04;8.70;99.90
54264;DHT22;40178;53.042;6.406;2024-02-04T15:22:30;8.70;99.90
54264;DHT22;40178;53.042;6.406;2024-02-04T15:24:56;8.70;99.90
54264;DHT22;40178;53.042;6.406;2024-02-04T15:27:24;8.70;99.90
54264;DHT22;40178;53.042;6.406;2024-02-04T15:29:51;8.80;99.90
54264;DHT22;40178;53.042;6.406;2024-02-04T15:32:17;8.80;99.90
54264;DHT22;40178;53.042;6.406;2024-02-04T15:34:43;8.80;99.90
54264;DHT22;40178;53.042;6.406;2024-02-04T15:37:09;8.90;99.90
54264;DHT22;40178;53.042;6.406;2024-02-04T15:39:35;8.90;99.90
54264;DHT22;40178;53.042;6.406;2024-02-04T15:42:03;8.90;99.90
54264;DHT22;40178;53.042;6.406;2024-02-04T15:44:30;9.00;99.90
54264;DHT22;40178;53.042;6.406;2024-02-04T15:46:56;9.00;99.90